Time;durP1;ratioP1;P1;durP2;ratioP2;P2;SDS_P1;SDS_P2;PMS_P1;PMS_P2;Temp;Humidity;BMP_temperature;BMP_pressure;BME280_temperature;BME280_humidity;BME280_pressure;Samples;Min_cycle;Max_cycle;Signal;HPM_P1;HPM_P2
2023/12/25 00:01:16;;;;;;;20.48;5.40;;;;;;;;;;5096375;28;20028;-67
2023/12/25 00:04:01;;;;;;;23.92;5.18;;;;;;;;;;5101909;28;20450;-67
2023/12/25 00:06:47;;;;;;;34.80;5.50;;;;;;;;;;5112736;28;20027;-67
2023/12/25 00:09:33;;;;;;;37.60;5.70;;;;;;;;;;5112660;28;20100;-67
2023/12/25 00:12:18;;;;;;;26.95;6.13;;;;;;;;;;5113123;28;20080;-67
2023/12/25 00:15:04;;;;;;;28.30;5.25;;;;;;;;;;5112183;28;20023;-67
2023/12/25 00:17:50;;;;;;;30.33;5.55;;;;;;;;;;5111499;28;20020;-67
2023/12/25 00:20:36;;;;;;;22.73;4.38;;;;;;;;;;5113396;28;20023;-67
2023/12/25 00:23:21;;;;;;;25.02;5.65;;;;;;;;;;5112946;28;20223;-67
2023/12/25 00:26:08;;;;;;;35.78;6.35;;;;;;;;;;5112353;28;20152;-67
2023/12/25 00:28:53;;;;;;;28.00;5.57;;;;;;;;;;5112651;28;20031;-67
2023/12/25 00:31:39;;;;;;;36.33;8.75;;;;;;;;;;5113376;28;20016;-67
2023/12/25 00:34:24;;;;;;;42.50;8.05;;;;;;;;;;5112934;28;20051;-67
2023/12/25 00:37:10;;;;;;;33.75;7.95;;;;;;;;;;5112564;28;20028;-68
2023/12/25 00:39:56;;;;;;;27.77;6.10;;;;;;;;;;5112710;28;20035;-67
2023/12/25 00:42:41;;;;;;;28.38;6.47;;;;;;;;;;5112589;28;20059;-67
2023/12/25 00:45:27;;;;;;;41.50;9.82;;;;;;;;;;5112421;28;20024;-67
2023/12/25 00:48:13;;;;;;;34.80;7.95;;;;;;;;;;5112021;28;20408;-67
2023/12/25 00:50:58;;;;;;;33.95;5.20;;;;;;;;;;5112336;28;20015;-68
2023/12/25 00:53:44;;;;;;;33.88;6.00;;;;;;;;;;5113069;28;20019;-67
2023/12/25 00:56:29;;;;;;;29.95;5.50;;;;;;;;;;5113279;28;20418;-67
2023/12/25 00:59:15;;;;;;;23.42;5.82;;;;;;;;;;5111878;28;20035;-67
2023/12/25 01:02:01;;;;;;;27.73;6.18;;;;;;;;;;5112224;28;20027;-68
2023/12/25 01:04:46;;;;;;;36.75;7.72;;;;;;;;;;5113599;28;20512;-67
2023/12/25 01:07:32;;;;;;;27.27;5.72;;;;;;;;;;5111915;28;20019;-68
2023/12/25 01:10:18;;;;;;;24.15;4.88;;;;;;;;;;5111368;28;20030;-67
2023/12/25 01:13:04;;;;;;;30.05;5.93;;;;;;;;;;5112600;28;20027;-68
2023/12/25 01:15:49;;;;;;;31.98;6.22;;;;;;;;;;5112034;28;20058;-67
2023/12/25 01:18:35;;;;;;;22.42;5.45;;;;;;;;;;5111780;28;20499;-67
2023/12/25 01:21:20;;;;;;;14.95;5.10;;;;;;;;;;5112885;28;20396;-67
2023/12/25 01:24:06;;;;;;;30.88;7.32;;;;;;;;;;5112229;28;20024;-67
2023/12/25 01:26:52;;;;;;;30.98;6.55;;;;;;;;;;5112224;28;20047;-67
2023/12/25 01:29:37;;;;;;;37.85;6.15;;;;;;;;;;5114044;28;20023;-67
2023/12/25 01:32:23;;;;;;;37.03;7.03;;;;;;;;;;5117162;28;20103;-67
2023/12/25 01:35:08;;;;;;;26.02;5.78;;;;;;;;;;5115891;28;20477;-67
2023/12/25 01:37:54;;;;;;;47.72;7.80;;;;;;;;;;5116452;28;20369;-67
2023/12/25 01:40:43;;;;;;;28.38;6.35;;;;;;;;;;5115930;28;20058;-67
2023/12/25 01:43:29;;;;;;;28.02;7.25;;;;;;;;;;5115730;28;20596;-68
2023/12/25 01:46:15;;;;;;;34.42;6.95;;;;;;;;;;5116042;28;20557;-67
2023/12/25 01:49:01;;;;;;;49.15;8.32;;;;;;;;;;5115603;28;20385;-67
2023/12/25 01:51:47;;;;;;;28.15;5.95;;;;;;;;;;5116564;28;20027;-67
2023/12/25 01:54:33;;;;;;;33.83;5.40;;;;;;;;;;5115776;28;20401;-67
2023/12/25 01:57:18;;;;;;;27.52;6.13;;;;;;;;;;5116220;28;20077;-67
2023/12/25 02:00:04;;;;;;;31.50;5.68;;;;;;;;;;5115029;28;20051;-68
2023/12/25 02:02:50;;;;;;;25.20;3.78;;;;;;;;;;5115760;28;20115;-68
2023/12/25 02:05:36;;;;;;;31.08;6.60;;;;;;;;;;5115347;28;20442;-68
2023/12/25 02:08:22;;;;;;;34.40;5.05;;;;;;;;;;5114322;28;20096;-67
2023/12/25 02:11:08;;;;;;;24.00;5.97;;;;;;;;;;5116081;28;20026;-67
2023/12/25 02:13:56;;;;;;;31.92;5.88;;;;;;;;;;5115582;28;20081;-67
2023/12/25 02:16:43;;;;;;;23.30;4.85;;;;;;;;;;5115414;28;20047;-68
2023/12/25 02:19:34;;;;;;;25.63;6.40;;;;;;;;;;5115744;28;20470;-67
2023/12/25 02:22:20;;;;;;;20.58;3.88;;;;;;;;;;5114950;28;20175;-67
2023/12/25 02:25:09;;;;;;;27.48;5.07;;;;;;;;;;5115134;28;20084;-68
2023/12/25 02:27:55;;;;;;;26.70;4.90;;;;;;;;;;5114191;28;20034;-67
2023/12/25 02:30:40;;;;;;;24.05;6.57;;;;;;;;;;5115252;28;20020;-67
2023/12/25 02:33:26;;;;;;;26.20;4.97;;;;;;;;;;5114893;28;20555;-67
2023/12/25 02:36:13;;;;;;;35.35;5.85;;;;;;;;;;5115350;28;20099;-67
2023/12/25 02:38:59;;;;;;;38.53;7.05;;;;;;;;;;5115413;28;20153;-67
2023/12/25 02:41:44;;;;;;;39.28;7.32;;;;;;;;;;5113593;28;20020;-67
2023/12/25 02:44:30;;;;;;;40.15;6.88;;;;;;;;;;5115042;28;20108;-67
2023/12/25 02:47:16;;;;;;;31.00;6.50;;;;;;;;;;5114818;28;20027;-67
2023/12/25 02:50:01;;;;;;;36.22;6.32;;;;;;;;;;5114811;28;20020;-67
2023/12/25 02:52:47;;;;;;;39.83;5.93;;;;;;;;;;5114526;28;20019;-67
2023/12/25 02:55:32;;;;;;;31.17;6.78;;;;;;;;;;5114537;28;20496;-67
2023/12/25 02:58:18;;;;;;;38.60;6.10;;;;;;;;;;5114012;28;20088;-67
2023/12/25 03:01:04;;;;;;;40.92;5.35;;;;;;;;;;5114093;28;20104;-67
2023/12/25 03:03:49;;;;;;;22.55;4.47;;;;;;;;;;5114373;28;20500;-67
2023/12/25 03:06:35;;;;;;;30.42;5.28;;;;;;;;;;5114080;28;20026;-67
2023/12/25 03:09:21;;;;;;;43.60;6.70;;;;;;;;;;5114133;28;20023;-67
2023/12/25 03:12:07;;;;;;;33.85;6.03;;;;;;;;;;5114219;28;20027;-67
2023/12/25 03:14:52;;;;;;;31.98;4.88;;;;;;;;;;5114347;28;20026;-67
2023/12/25 03:17:38;;;;;;;24.63;5.40;;;;;;;;;;5113619;28;20488;-67
2023/12/25 03:20:23;;;;;;;37.95;5.68;;;;;;;;;;5114097;28;20019;-67
2023/12/25 03:23:09;;;;;;;33.58;5.75;;;;;;;;;;5114427;28;20024;-67
2023/12/25 03:25:56;;;;;;;39.90;6.38;;;;;;;;;;5113091;28;20058;-67
2023/12/25 03:28:41;;;;;;;25.13;4.40;;;;;;;;;;5113843;28;20114;-67
2023/12/25 03:31:27;;;;;;;24.73;7.53;;;;;;;;;;5113997;28;20031;-67
2023/12/25 03:34:18;;;;;;;28.23;6.15;;;;;;;;;;5114704;28;20072;-67
2023/12/25 03:37:04;;;;;;;39.40;5.43;;;;;;;;;;5113851;28;20028;-67
2023/12/25 03:39:50;;;;;;;24.50;6.15;;;;;;;;;;5113507;28;20024;-67
2023/12/25 03:42:36;;;;;;;30.25;5.88;;;;;;;;;;5113331;28;20024;-67
2023/12/25 03:45:21;;;;;;;28.65;6.95;;;;;;;;;;5113895;28;20024;-67
2023/12/25 03:48:07;;;;;;;23.83;6.20;;;;;;;;;;5113614;28;20472;-67
2023/12/25 03:50:53;;;;;;;21.67;5.38;;;;;;;;;;5113819;28;20024;-67
2023/12/25 03:53:39;;;;;;;33.03;6.20;;;;;;;;;;5113276;28;20102;-67
2023/12/25 03:56:24;;;;;;;25.73;4.85;;;;;;;;;;5114160;28;20058;-68
2023/12/25 03:59:10;;;;;;;38.15;4.82;;;;;;;;;;5112767;28;20080;-67
2023/12/25 04:01:56;;;;;;;21.02;5.70;;;;;;;;;;5112784;28;20019;-67
2023/12/25 04:04:41;;;;;;;9.65;3.25;;;;;;;;;;5113151;28;20393;-67
2023/12/25 04:07:27;;;;;;;10.43;2.35;;;;;;;;;;5113847;28;20080;-68
2023/12/25 04:10:13;;;;;;;7.82;2.03;;;;;;;;;;5113129;28;20030;-67
2023/12/25 04:12:59;;;;;;;14.07;2.05;;;;;;;;;;5113056;28;20015;-67
2023/12/25 04:15:44;;;;;;;7.30;3.00;;;;;;;;;;5113282;28;20358;-67
2023/12/25 04:18:30;;;;;;;7.95;2.72;;;;;;;;;;5113432;28;20023;-67
2023/12/25 04:21:26;;;;;;;12.88;3.28;;;;;;;;;;5112983;28;20473;-67
2023/12/25 04:24:12;;;;;;;10.70;2.50;;;;;;;;;;5111833;28;20031;-67
2023/12/25 04:26:57;;;;;;;19.38;3.35;;;;;;;;;;5112842;28;20419;-67
2023/12/25 04:29:43;;;;;;;22.70;2.65;;;;;;;;;;5112779;28;20050;-67
2023/12/25 04:32:28;;;;;;;11.15;2.30;;;;;;;;;;5111786;28;20018;-67
2023/12/25 04:35:14;;;;;;;18.92;3.13;;;;;;;;;;5111603;28;20019;-67
2023/12/25 04:38:00;;;;;;;21.25;3.97;;;;;;;;;;5112110;28;20020;-67
2023/12/25 04:40:45;;;;;;;24.25;4.63;;;;;;;;;;5113030;28;20477;-67
2023/12/25 04:43:31;;;;;;;26.15;4.68;;;;;;;;;;5112459;28;20496;-67
2023/12/25 04:46:17;;;;;;;33.15;5.47;;;;;;;;;;5097720;28;20170;-67
2023/12/25 04:49:04;;;;;;;41.58;7.07;;;;;;;;;;5095823;28;20027;-67
2023/12/25 04:51:49;;;;;;;39.67;5.18;;;;;;;;;;5103663;28;20523;-67
2023/12/25 04:54:35;;;;;;;32.35;5.93;;;;;;;;;;5110120;28;20015;-67
2023/12/25 04:57:20;;;;;;;38.65;6.53;;;;;;;;;;5112472;28;20031;-67
2023/12/25 05:00:07;;;;;;;30.70;5.82;;;;;;;;;;5111249;28;20106;-67
2023/12/25 05:02:52;;;;;;;31.17;4.88;;;;;;;;;;5112802;28;20035;-67
2023/12/25 05:05:38;;;;;;;14.55;3.72;;;;;;;;;;5110682;28;20085;-67
2023/12/25 05:08:23;;;;;;;16.92;3.25;;;;;;;;;;5113068;28;20019;-67
2023/12/25 05:11:09;;;;;;;15.50;4.00;;;;;;;;;;5112115;28;20498;-67
2023/12/25 05:13:55;;;;;;;14.98;2.83;;;;;;;;;;5113136;28;20034;-67
2023/12/25 05:16:40;;;;;;;19.98;2.95;;;;;;;;;;5112085;28;20031;-67
2023/12/25 05:19:26;;;;;;;20.85;3.00;;;;;;;;;;5111776;28;20122;-67
2023/12/25 05:22:12;;;;;;;10.07;2.50;;;;;;;;;;5112231;28;20051;-67
2023/12/25 05:24:58;;;;;;;19.23;3.42;;;;;;;;;;5112194;28;20108;-67
2023/12/25 05:27:43;;;;;;;7.90;3.22;;;;;;;;;;5112117;28;20127;-67
2023/12/25 05:30:29;;;;;;;12.80;3.10;;;;;;;;;;5112185;28;20533;-67
2023/12/25 05:33:14;;;;;;;13.45;3.28;;;;;;;;;;5112127;28;20439;-67
2023/12/25 05:36:00;;;;;;;9.88;2.28;;;;;;;;;;5111597;28;20024;-67
2023/12/25 05:38:46;;;;;;;18.15;3.60;;;;;;;;;;5112785;28;20059;-67
2023/12/25 05:41:32;;;;;;;11.27;2.22;;;;;;;;;;5112064;28;20023;-67
2023/12/25 05:44:17;;;;;;;10.25;2.90;;;;;;;;;;5111276;28;20051;-67
2023/12/25 05:47:03;;;;;;;7.82;2.08;;;;;;;;;;5112138;28;20107;-67
2023/12/25 05:49:48;;;;;;;11.57;2.42;;;;;;;;;;5111564;28;20110;-67
2023/12/25 05:52:34;;;;;;;9.02;2.72;;;;;;;;;;5111848;28;20051;-67
2023/12/25 05:55:20;;;;;;;11.32;2.60;;;;;;;;;;5112246;28;20408;-67
2023/12/25 05:58:06;;;;;;;9.35;2.53;;;;;;;;;;5111917;28;20028;-67
2023/12/25 06:00:51;;;;;;;26.55;2.97;;;;;;;;;;5111742;28;20019;-67
2023/12/25 06:03:37;;;;;;;11.40;2.90;;;;;;;;;;5111995;28;20106;-67
2023/12/25 06:06:22;;;;;;;14.63;2.70;;;;;;;;;;5111915;28;20023;-67
2023/12/25 06:09:12;;;;;;;13.40;3.50;;;;;;;;;;5111395;28;20031;-67
2023/12/25 06:11:58;;;;;;;19.27;3.40;;;;;;;;;;5111632;28;20571;-67
2023/12/25 06:14:44;;;;;;;24.85;3.67;;;;;;;;;;5111133;28;20384;-67
2023/12/25 06:17:29;;;;;;;20.17;2.78;;;;;;;;;;5114558;28;20024;-67
2023/12/25 06:20:15;;;;;;;10.75;2.67;;;;;;;;;;5114822;28;20023;-67
2023/12/25 06:23:01;;;;;;;13.65;2.28;;;;;;;;;;5115652;28;20062;-67
2023/12/25 06:25:46;;;;;;;19.35;3.85;;;;;;;;;;5115571;28;20488;-67
2023/12/25 06:28:32;;;;;;;16.77;3.15;;;;;;;;;;5114751;28;20031;-67
2023/12/25 06:31:17;;;;;;;28.85;5.03;;;;;;;;;;5114794;28;20016;-67
2023/12/25 06:34:03;;;;;;;16.92;3.45;;;;;;;;;;5114903;28;20560;-67
2023/12/25 06:36:49;;;;;;;15.25;4.78;;;;;;;;;;5114704;28;20400;-67
2023/12/25 06:39:34;;;;;;;15.20;3.08;;;;;;;;;;5114888;28;20028;-67
2023/12/25 06:42:20;;;;;;;22.58;3.47;;;;;;;;;;5115189;28;20107;-68
2023/12/25 06:45:06;;;;;;;16.90;3.22;;;;;;;;;;5115757;28;20031;-67
2023/12/25 06:47:52;;;;;;;28.60;3.47;;;;;;;;;;5115335;28;20030;-67
2023/12/25 06:50:38;;;;;;;13.93;3.53;;;;;;;;;;5115035;28;20020;-67
2023/12/25 06:53:24;;;;;;;13.13;3.63;;;;;;;;;;5115267;28;20027;-67
2023/12/25 06:56:10;;;;;;;24.02;3.30;;;;;;;;;;5114389;28;20028;-67
2023/12/25 06:58:56;;;;;;;12.60;2.30;;;;;;;;;;5114248;28;20072;-67
2023/12/25 07:01:41;;;;;;;15.38;3.08;;;;;;;;;;5114413;28;20540;-67
2023/12/25 07:04:27;;;;;;;13.75;3.00;;;;;;;;;;5114184;28;20446;-67
2023/12/25 07:07:13;;;;;;;9.63;2.83;;;;;;;;;;5114859;28;20047;-67
2023/12/25 07:09:58;;;;;;;13.77;2.83;;;;;;;;;;5113899;28;20138;-67
2023/12/25 07:12:44;;;;;;;20.63;4.10;;;;;;;;;;5114033;28;20020;-67
2023/12/25 07:15:29;;;;;;;18.13;2.72;;;;;;;;;;5114565;28;20024;-67
2023/12/25 07:18:15;;;;;;;25.48;4.47;;;;;;;;;;5114146;28;20492;-67
2023/12/25 07:21:01;;;;;;;27.23;3.72;;;;;;;;;;5114474;28;20019;-67
2023/12/25 07:23:46;;;;;;;23.00;3.50;;;;;;;;;;5113966;28;20082;-67
2023/12/25 07:26:32;;;;;;;17.80;3.67;;;;;;;;;;5113628;28;20023;-67
2023/12/25 07:29:18;;;;;;;15.38;3.22;;;;;;;;;;5113825;28;20472;-67
2023/12/25 07:32:04;;;;;;;37.53;3.72;;;;;;;;;;5113593;28;20042;-67
2023/12/25 07:34:49;;;;;;;18.90;2.88;;;;;;;;;;5113705;28;20024;-67
2023/12/25 07:37:35;;;;;;;25.33;4.50;;;;;;;;;;5114287;28;20055;-67
2023/12/25 07:40:21;;;;;;;20.27;3.50;;;;;;;;;;5112823;28;20408;-67
2023/12/25 07:43:09;;;;;;;27.50;3.78;;;;;;;;;;5114165;28;20185;-67
2023/12/25 07:45:55;;;;;;;13.23;3.70;;;;;;;;;;5113487;28;20034;-67
2023/12/25 07:48:41;;;;;;;18.88;3.00;;;;;;;;;;5113172;28;20023;-67
2023/12/25 07:51:27;;;;;;;17.38;2.60;;;;;;;;;;5113637;28;20062;-67
2023/12/25 07:54:12;;;;;;;12.95;3.88;;;;;;;;;;5113974;28;20020;-67
2023/12/25 07:56:58;;;;;;;27.63;4.45;;;;;;;;;;5113597;28;20023;-67
2023/12/25 07:59:43;;;;;;;19.15;4.35;;;;;;;;;;5110852;28;22563;-66
2023/12/25 08:02:10;;;;;;;32.38;4.00;;;;;;;;;;5095739;22;20047;-67
2023/12/25 08:04:56;;;;;;;23.13;3.42;;;;;;;;;;5065550;28;20470;-67
2023/12/25 08:07:41;;;;;;;22.42;4.10;;;;;;;;;;5073296;28;20405;-67
2023/12/25 08:10:28;;;;;;;19.38;4.78;;;;;;;;;;5039733;28;20057;-67
2023/12/25 08:13:17;;;;;;;15.23;3.67;;;;;;;;;;5053908;28;20025;-67
2023/12/25 08:16:03;;;;;;;13.30;2.97;;;;;;;;;;5053196;28;20051;-67
2023/12/25 08:18:48;;;;;;;20.55;6.00;;;;;;;;;;5054869;28;20398;-67
2023/12/25 08:21:34;;;;;;;21.75;5.43;;;;;;;;;;5053487;28;20390;-67
2023/12/25 08:24:19;;;;;;;11.57;2.95;;;;;;;;;;5053853;28;20029;-67
2023/12/25 08:27:05;;;;;;;16.30;3.00;;;;;;;;;;5052268;28;20021;-68
2023/12/25 08:29:51;;;;;;;29.13;3.17;;;;;;;;;;5053638;28;20029;-67
2023/12/25 08:32:36;;;;;;;22.77;4.25;;;;;;;;;;5053408;28;20517;-68
2023/12/25 08:35:22;;;;;;;20.38;4.45;;;;;;;;;;5053365;28;20451;-67
2023/12/25 08:38:08;;;;;;;18.40;3.20;;;;;;;;;;5053254;28;20020;-67
2023/12/25 08:40:53;;;;;;;16.42;3.03;;;;;;;;;;5053104;28;20486;-68
2023/12/25 08:43:39;;;;;;;14.50;2.85;;;;;;;;;;5053115;28;20036;-68
2023/12/25 08:46:24;;;;;;;16.67;3.83;;;;;;;;;;5053586;28;20059;-67
2023/12/25 08:49:10;;;;;;;17.45;3.28;;;;;;;;;;5053150;28;20025;-67
2023/12/25 08:51:56;;;;;;;25.70;3.95;;;;;;;;;;5053039;28;20497;-68
2023/12/25 08:54:41;;;;;;;19.92;4.00;;;;;;;;;;5053518;28;20413;-67
2023/12/25 08:57:27;;;;;;;10.88;3.30;;;;;;;;;;5053381;28;20021;-67
2023/12/25 09:00:13;;;;;;;9.13;2.97;;;;;;;;;;5052445;28;20029;-67
2023/12/25 09:02:58;;;;;;;15.98;3.78;;;;;;;;;;5053393;28;20379;-67
2023/12/25 09:05:44;;;;;;;12.73;3.42;;;;;;;;;;5053262;28;20036;-67
2023/12/25 09:08:30;;;;;;;11.85;3.38;;;;;;;;;;5039046;28;20102;-67
2023/12/25 09:11:16;;;;;;;22.65;4.18;;;;;;;;;;5053159;28;20025;-67
2023/12/25 09:14:03;;;;;;;20.75;3.80;;;;;;;;;;5038614;28;20021;-67
2023/12/25 09:16:49;;;;;;;19.33;5.85;;;;;;;;;;5052207;28;20025;-67
2023/12/25 09:19:34;;;;;;;20.20;6.07;;;;;;;;;;5052989;28;20415;-67
2023/12/25 09:22:23;;;;;;;19.10;3.67;;;;;;;;;;5052714;28;20021;-67
2023/12/25 09:25:09;;;;;;;17.83;5.18;;;;;;;;;;5052423;28;20032;-67
2023/12/25 09:27:54;;;;;;;23.23;4.38;;;;;;;;;;5053105;28;20037;-68
2023/12/25 09:30:40;;;;;;;25.65;4.63;;;;;;;;;;5052821;28;20071;-68
2023/12/25 09:33:25;;;;;;;23.65;4.65;;;;;;;;;;5052809;28;20541;-67
2023/12/25 09:36:11;;;;;;;20.30;3.05;;;;;;;;;;5052889;28;20108;-67
2023/12/25 09:38:57;;;;;;;24.20;3.97;;;;;;;;;;5052927;28;20027;-67
2023/12/25 09:41:42;;;;;;;22.02;4.28;;;;;;;;;;5052390;28;20178;-67
2023/12/25 09:44:28;;;;;;;16.80;4.15;;;;;;;;;;5052439;28;20052;-67
2023/12/25 09:47:14;;;;;;;9.30;2.65;;;;;;;;;;5052752;28;20028;-67
2023/12/25 09:50:00;;;;;;;27.75;4.40;;;;;;;;;;5052995;28;20074;-67
2023/12/25 09:52:45;;;;;;;13.65;3.45;;;;;;;;;;5042006;28;20013;-67
2023/12/25 09:55:31;;;;;;;14.00;3.40;;;;;;;;;;5041664;28;20405;-68
2023/12/25 09:58:17;;;;;;;35.35;4.97;;;;;;;;;;5055616;28;20083;-67
2023/12/25 10:01:02;;;;;;;14.27;3.78;;;;;;;;;;5055917;28;20498;-68
2023/12/25 10:03:48;;;;;;;11.80;3.05;;;;;;;;;;5055144;28;20581;-68
2023/12/25 10:06:35;;;;;;;7.57;2.70;;;;;;;;;;5056320;28;20071;-68
2023/12/25 10:09:20;;;;;;;12.52;3.20;;;;;;;;;;5055586;28;20021;-68
2023/12/25 10:12:06;;;;;;;12.02;3.47;;;;;;;;;;5056135;28;20150;-67
2023/12/25 10:14:52;;;;;;;10.48;2.72;;;;;;;;;;5056100;28;20026;-67
2023/12/25 10:17:38;;;;;;;18.48;2.63;;;;;;;;;;5056707;28;20100;-67
2023/12/25 10:20:23;;;;;;;17.40;3.45;;;;;;;;;;5055082;28;20363;-67
2023/12/25 10:23:13;;;;;;;17.95;3.85;;;;;;;;;;5056025;28;20033;-67
2023/12/25 10:26:00;;;;;;;13.55;3.58;;;;;;;;;;5042162;28;20036;-67
2023/12/25 10:28:45;;;;;;;22.98;2.85;;;;;;;;;;5041224;28;20102;-67
2023/12/25 10:31:31;;;;;;;14.05;4.95;;;;;;;;;;5055383;28;20025;-68
2023/12/25 10:34:20;;;;;;;11.82;3.72;;;;;;;;;;5055762;28;20086;-68
2023/12/25 10:37:05;;;;;;;25.50;3.28;;;;;;;;;;5055761;28;20029;-67
2023/12/25 10:39:51;;;;;;;15.63;3.47;;;;;;;;;;5055090;28;20486;-68
2023/12/25 10:42:37;;;;;;;30.95;5.97;;;;;;;;;;5055324;28;20343;-67
2023/12/25 10:45:27;;;;;;;18.08;4.13;;;;;;;;;;5055856;28;20057;-68
2023/12/25 10:48:13;;;;;;;21.02;3.65;;;;;;;;;;5041338;28;20036;-68
2023/12/25 10:50:58;;;;;;;17.23;4.13;;;;;;;;;;5041084;28;20498;-68
2023/12/25 10:53:44;;;;;;;29.75;4.38;;;;;;;;;;5040544;28;20036;-67
2023/12/25 10:56:35;;;;;;;24.98;4.65;;;;;;;;;;5040356;28;20029;-67
2023/12/25 10:59:30;;;;;;;25.95;4.63;;;;;;;;;;5040699;28;20079;-68
2023/12/25 11:02:16;;;;;;;19.92;3.45;;;;;;;;;;5039645;28;20509;-67
2023/12/25 11:05:02;;;;;;;16.95;3.60;;;;;;;;;;5040288;28;20045;-68
2023/12/25 11:07:48;;;;;;;19.00;3.60;;;;;;;;;;5054033;28;20021;-68
2023/12/25 11:10:35;;;;;;;12.73;3.05;;;;;;;;;;5040035;28;20032;-67
2023/12/25 11:13:20;;;;;;;11.80;2.40;;;;;;;;;;5056322;28;20063;-68
2023/12/25 11:16:09;;;;;;;13.43;2.67;;;;;;;;;;5055397;28;20104;-68
2023/12/25 11:18:55;;;;;;;16.58;3.63;;;;;;;;;;5040395;28;20021;-67
2023/12/25 11:21:41;;;;;;;13.07;4.07;;;;;;;;;;5054383;28;20028;-67
2023/12/25 11:24:28;;;;;;;7.82;3.58;;;;;;;;;;5054255;28;20033;-68
2023/12/25 11:27:16;;;;;;;13.80;2.13;;;;;;;;;;5054557;28;20029;-67
2023/12/25 11:30:03;;;;;;;11.05;3.05;;;;;;;;;;5053872;28;20024;-67
2023/12/25 11:32:50;;;;;;;19.55;3.85;;;;;;;;;;5039821;28;20029;-68
2023/12/25 11:35:37;;;;;;;23.08;3.75;;;;;;;;;;5054450;28;20021;-67
2023/12/25 11:38:25;;;;;;;25.88;4.30;;;;;;;;;;5054650;28;20103;-67
2023/12/25 11:41:19;;;;;;;12.27;4.40;;;;;;;;;;5039471;28;20029;-67
2023/12/25 11:44:06;;;;;;;15.85;3.95;;;;;;;;;;5053654;28;20033;-67
2023/12/25 11:46:52;;;;;;;20.00;4.03;;;;;;;;;;5040527;28;20021;-67
2023/12/25 11:49:42;;;;;;;29.60;4.32;;;;;;;;;;5038719;28;20027;-68
2023/12/25 11:52:54;;;;;;;12.50;3.25;;;;;;;;;;5054101;28;20025;-67
2023/12/25 11:55:42;;;;;;;22.58;4.07;;;;;;;;;;5053467;28;20055;-67
2023/12/25 11:58:30;;;;;;;20.17;3.20;;;;;;;;;;5040017;28;20025;-67
2023/12/25 12:01:17;;;;;;;18.98;4.57;;;;;;;;;;5038957;28;20455;-67
2023/12/25 12:04:04;;;;;;;13.25;2.75;;;;;;;;;;5040073;28;20036;-67
2023/12/25 12:06:50;;;;;;;12.07;4.20;;;;;;;;;;5053864;28;20402;-67
2023/12/25 12:09:36;;;;;;;10.40;2.70;;;;;;;;;;5053939;28;20124;-67
2023/12/25 12:12:22;;;;;;;25.27;3.15;;;;;;;;;;5054020;28;20048;-68
2023/12/25 12:15:08;;;;;;;20.75;3.35;;;;;;;;;;5054456;28;20486;-67
2023/12/25 12:17:53;;;;;;;17.58;3.08;;;;;;;;;;5054264;28;20445;-67
2023/12/25 12:20:39;;;;;;;19.25;4.25;;;;;;;;;;5053563;28;20104;-67
2023/12/25 12:23:31;;;;;;;20.60;4.53;;;;;;;;;;5052235;28;20106;-68
2023/12/25 12:26:16;;;;;;;16.15;3.95;;;;;;;;;;5039216;28;20032;-68
2023/12/25 12:29:02;;;;;;;10.43;2.63;;;;;;;;;;5053416;28;20035;-68
2023/12/25 12:31:48;;;;;;;17.40;2.60;;;;;;;;;;5053725;28;20090;-68
2023/12/25 12:34:33;;;;;;;22.13;4.50;;;;;;;;;;5053605;28;20025;-67
2023/12/25 12:37:20;;;;;;;17.63;3.33;;;;;;;;;;5054324;28;20090;-68
2023/12/25 12:40:06;;;;;;;19.08;3.45;;;;;;;;;;5038649;28;20545;-68
2023/12/25 12:42:52;;;;;;;16.10;2.47;;;;;;;;;;5039886;28;20057;-67
2023/12/25 12:45:39;;;;;;;21.63;4.38;;;;;;;;;;5044710;28;20048;-67
2023/12/25 12:48:25;;;;;;;25.65;4.30;;;;;;;;;;5064291;28;20516;-67
2023/12/25 12:51:10;;;;;;;15.30;3.95;;;;;;;;;;5064703;28;20027;-67
2023/12/25 12:53:56;;;;;;;17.90;4.18;;;;;;;;;;5062372;28;20515;-68
2023/12/25 12:56:42;;;;;;;18.40;4.80;;;;;;;;;;5072410;28;20029;-68
2023/12/25 12:59:27;;;;;;;13.00;5.20;;;;;;;;;;5073515;28;20401;-68
2023/12/25 13:02:13;;;;;;;17.05;4.00;;;;;;;;;;5074022;28;20037;-68
2023/12/25 13:04:58;;;;;;;27.42;4.78;;;;;;;;;;5072316;28;20455;-68
2023/12/25 13:07:44;;;;;;;18.52;3.83;;;;;;;;;;5073668;28;20074;-69
2023/12/25 13:10:30;;;;;;;25.65;4.35;;;;;;;;;;5072856;28;20027;-68
2023/12/25 13:13:16;;;;;;;14.38;3.95;;;;;;;;;;5073145;28;20104;-68
2023/12/25 13:16:02;;;;;;;17.77;2.97;;;;;;;;;;5073948;28;20036;-67
2023/12/25 13:18:48;;;;;;;12.88;3.45;;;;;;;;;;5073024;28;20032;-67
2023/12/25 13:21:33;;;;;;;19.48;3.05;;;;;;;;;;5058222;28;20111;-68
2023/12/25 13:24:19;;;;;;;15.68;3.00;;;;;;;;;;5073446;28;20031;-70
2023/12/25 13:27:06;;;;;;;22.83;4.13;;;;;;;;;;5062993;28;20113;-70
2023/12/25 13:29:52;;;;;;;16.27;2.83;;;;;;;;;;5077176;28;20029;-70
2023/12/25 13:32:37;;;;;;;27.13;3.65;;;;;;;;;;5077179;28;20055;-70
2023/12/25 13:35:23;;;;;;;13.38;3.83;;;;;;;;;;5077317;28;20108;-70
2023/12/25 13:38:09;;;;;;;22.50;3.67;;;;;;;;;;5062637;28;20028;-70
2023/12/25 13:40:54;;;;;;;24.75;4.57;;;;;;;;;;5062738;28;20024;-70
2023/12/25 13:43:40;;;;;;;17.65;3.20;;;;;;;;;;5076569;28;20505;-70
2023/12/25 13:46:26;;;;;;;15.85;3.40;;;;;;;;;;5062189;28;20103;-70
2023/12/25 13:49:11;;;;;;;14.50;3.78;;;;;;;;;;5076217;28;20020;-70
2023/12/25 13:51:57;;;;;;;15.50;2.90;;;;;;;;;;5061750;28;20100;-70
2023/12/25 13:54:43;;;;;;;11.70;4.07;;;;;;;;;;5076767;28;20405;-70
2023/12/25 13:57:28;;;;;;;23.00;3.03;;;;;;;;;;5062534;28;20028;-70
2023/12/25 14:00:14;;;;;;;15.48;3.40;;;;;;;;;;5061550;28;20039;-70
2023/12/25 14:03:01;;;;;;;14.07;3.55;;;;;;;;;;5076282;28;20048;-70
2023/12/25 14:05:46;;;;;;;26.08;3.50;;;;;;;;;;5077001;28;20082;-70
2023/12/25 14:08:32;;;;;;;21.08;4.93;;;;;;;;;;5075906;28;20036;-70
2023/12/25 14:11:18;;;;;;;44.42;12.80;;;;;;;;;;5076159;28;20020;-70
2023/12/25 14:14:04;;;;;;;22.17;9.20;;;;;;;;;;5075579;28;20024;-70
2023/12/25 14:16:50;;;;;;;16.20;3.72;;;;;;;;;;5061652;28;20028;-70
2023/12/25 14:19:36;;;;;;;21.58;5.47;;;;;;;;;;5077153;28;20028;-70
2023/12/25 14:22:21;;;;;;;16.95;4.22;;;;;;;;;;5075967;28;20401;-70
2023/12/25 14:25:08;;;;;;;28.42;4.80;;;;;;;;;;5075571;28;20024;-70
2023/12/25 14:27:53;;;;;;;16.80;5.00;;;;;;;;;;5062039;28;20052;-70
2023/12/25 14:30:39;;;;;;;21.45;4.68;;;;;;;;;;5076250;28;20063;-70
2023/12/25 14:33:25;;;;;;;17.00;4.75;;;;;;;;;;5075680;28;20020;-70
2023/12/25 14:36:10;;;;;;;15.98;3.95;;;;;;;;;;5075688;28;20106;-70
2023/12/25 14:38:56;;;;;;;22.13;3.90;;;;;;;;;;5075486;28;20025;-70
2023/12/25 14:41:42;;;;;;;20.40;3.88;;;;;;;;;;5075848;28;20051;-70
2023/12/25 14:44:27;;;;;;;8.32;2.38;;;;;;;;;;5061912;28;20025;-70
2023/12/25 14:47:14;;;;;;;22.90;4.15;;;;;;;;;;5061514;28;20028;-70
2023/12/25 14:50:01;;;;;;;15.70;4.15;;;;;;;;;;5061031;28;20024;-70
2023/12/25 14:52:47;;;;;;;55.38;14.35;;;;;;;;;;5061332;28;20104;-70
2023/12/25 14:55:32;;;;;;;52.80;13.23;;;;;;;;;;5059327;28;20154;-70
2023/12/25 14:58:19;;;;;;;36.65;6.80;;;;;;;;;;5075185;28;20024;-70
2023/12/25 15:01:04;;;;;;;32.92;9.05;;;;;;;;;;5060087;28;20390;-70
2023/12/25 15:03:50;;;;;;;31.88;7.80;;;;;;;;;;5060546;28;20493;-70
2023/12/25 15:06:36;;;;;;;20.45;4.13;;;;;;;;;;5074694;28;20048;-70
2023/12/25 15:09:21;;;;;;;21.67;3.45;;;;;;;;;;5075762;28;20107;-70
2023/12/25 15:12:07;;;;;;;11.57;3.70;;;;;;;;;;5075110;28;20390;-71
2023/12/25 15:14:53;;;;;;;25.08;3.70;;;;;;;;;;5075069;28;20036;-71
2023/12/25 15:17:38;;;;;;;18.92;2.72;;;;;;;;;;5075186;28;20551;-70
2023/12/25 15:20:24;;;;;;;15.38;4.32;;;;;;;;;;5061132;28;20031;-71
2023/12/25 15:23:10;;;;;;;13.02;3.05;;;;;;;;;;5075351;28;20103;-70
2023/12/25 15:25:55;;;;;;;13.85;3.67;;;;;;;;;;5074049;28;20125;-71
2023/12/25 15:28:41;;;;;;;17.42;3.58;;;;;;;;;;5061102;28;20470;-70
2023/12/25 15:31:27;;;;;;;15.63;3.70;;;;;;;;;;5060652;28;20047;-70
2023/12/25 15:34:13;;;;;;;14.02;2.90;;;;;;;;;;5075615;28;20024;-70
2023/12/25 15:36:58;;;;;;;18.38;3.05;;;;;;;;;;5074423;28;20032;-70
2023/12/25 15:39:44;;;;;;;16.92;3.40;;;;;;;;;;5075038;28;20020;-70
2023/12/25 15:42:30;;;;;;;12.45;2.65;;;;;;;;;;5060356;28;20470;-68
2023/12/25 15:45:15;;;;;;;16.52;3.25;;;;;;;;;;5074810;28;20028;-67
2023/12/25 15:48:04;;;;;;;17.85;2.90;;;;;;;;;;5073979;28;20021;-67
2023/12/25 15:50:51;;;;;;;13.25;3.58;;;;;;;;;;5073729;28;20032;-67
2023/12/25 15:53:37;;;;;;;15.18;3.85;;;;;;;;;;5074738;28;20029;-69
2023/12/25 15:56:22;;;;;;;17.40;3.17;;;;;;;;;;5073427;28;20032;-69
2023/12/25 15:59:08;;;;;;;17.98;4.55;;;;;;;;;;5074971;28;20394;-69
2023/12/25 16:01:54;;;;;;;11.80;3.92;;;;;;;;;;5056350;28;20032;-69
2023/12/25 16:04:41;;;;;;;63.05;15.57;;;;;;;;;;5069163;28;20516;-69
2023/12/25 16:07:26;;;;;;;46.28;11.65;;;;;;;;;;5073126;28;20111;-69
2023/12/25 16:10:12;;;;;;;38.70;10.95;;;;;;;;;;5058506;28;20453;-69
2023/12/25 16:12:58;;;;;;;29.25;8.45;;;;;;;;;;5054026;28;20028;-69
2023/12/25 16:15:44;;;;;;;34.90;7.38;;;;;;;;;;5053940;28;20025;-69
2023/12/25 16:18:30;;;;;;;25.95;6.00;;;;;;;;;;5053619;28;20029;-69
2023/12/25 16:21:22;;;;;;;22.90;4.65;;;;;;;;;;5054832;28;20116;-69